Lajeado, Brazil
Current Conditions -  °F | °C
As of 1:00 PM on Saturday 20 Dec 2014 (Local Time) from SBCO Reporting Station
Clear Clear  
Wind Chill: 91°   Ceiling: Unl
Heat Index: 97°   Visibility: 6mi
Dew Point: 70°   Wind: 7mph
Humidity: 49%   Direction: NA
Pressure: 29.68"   Gusts: NA
Location:  29.47°S, 51.96°W
Report Text: SBCO 201500Z VRB06KT CAVOK 33/21 Q1005
Loading
Personal Weather Stations






























Interactive Weather Map New forecast layout! Learn more

10-Day Weather Forecast

Advertisements
Track Severe Weather on mobile